リュブリャナ の空港の天気 - METARとTAF

リュブリャナ空港 ( LJLJ / LJU ) - スロベニア リュブリャナ
飛行場実況気象(Metar)
観測時間11/30 12:30 CET (11/30 11:30 UTC)
風向・風速不定 1m/s
視程10km以上
天気現象
少しの雲 雲底高度 1010m
全天の8割程度の雲 雲底高度 1220m
気温3℃
湿度70%
気圧1026hPa
METARLJLJ 301130Z VRB01KT 9999 FEW033 BKN040 03/M02 Q1026 NOSIG
過去の天気等 Google飛行場航空写真 Wunderground天気予報

過去48時間のMETAR

飛行場予報(TAF)
発表時間: 11/30 12:00 CET (11/30 11:00 UTC)
予報対象時間: 30日13時 CET ~ 1日13時 CET
風向・風速不定 1m/s
視程10km以上
全天の4割程度の雲 雲底高度 1010m
1日1時 CET ~ 1日13時 CET に一時的に
視程300m
天気現象氷霧
全天を覆う雲 鉛直視程 30m
TAF LJLJ 301100Z 3012/0112 VRB01KT 9999 SCT033
TEMPO 0100/0112 0300 FZFG VV001